createdAt,value
2023-09-17T00:00:56.675Z,101349.44
2023-09-17T00:03:25.080Z,101345.38
2023-09-17T00:05:54.742Z,101345.75
2023-09-17T00:08:25.073Z,101349.91
2023-09-17T00:10:53.659Z,101345.41
2023-09-17T00:13:22.278Z,101348.16
2023-09-17T00:15:50.858Z,101336.63
2023-09-17T00:18:19.166Z,101337.53
2023-09-17T00:20:47.573Z,101338.03
2023-09-17T00:23:17.433Z,101339.63
2023-09-17T00:25:45.831Z,101333.81
2023-09-17T00:28:15.076Z,101334.38
2023-09-17T00:30:43.470Z,101334.44
2023-09-17T00:33:11.815Z,101337.00
2023-09-17T00:35:40.040Z,101334.25
2023-09-17T00:38:08.683Z,101334.94
2023-09-17T00:40:40.335Z,101329.38
2023-09-17T00:43:10.294Z,101333.38
2023-09-17T00:45:38.755Z,101328.44
2023-09-17T00:48:08.260Z,101316.94
2023-09-17T00:50:37.555Z,101316.44
2023-09-17T00:53:08.671Z,101317.13
2023-09-17T00:55:40.396Z,101311.84
2023-09-17T00:58:09.039Z,101316.53
2023-09-17T01:00:39.810Z,101313.63
2023-09-17T01:03:09.019Z,101314.97
2023-09-17T01:05:43.918Z,101315.03
2023-09-17T01:08:12.304Z,101316.50
2023-09-17T01:10:42.339Z,101316.47
2023-09-17T01:13:11.019Z,101313.63
2023-09-17T01:15:40.386Z,101309.06
2023-09-17T01:18:12.005Z,101308.72
2023-09-17T01:20:46.370Z,101311.03
2023-09-17T01:23:21.684Z,101312.16
2023-09-17T01:25:58.110Z,101313.88
2023-09-17T01:28:27.948Z,101304.88
2023-09-17T01:30:56.131Z,101304.28
2023-09-17T01:33:24.217Z,101297.72
2023-09-17T01:35:59.669Z,101295.59
2023-09-17T01:38:33.864Z,101292.59
2023-09-17T01:41:04.054Z,101287.69
2023-09-17T01:43:34.621Z,101286.00
2023-09-17T01:46:03.563Z,101281.59
2023-09-17T01:48:33.391Z,101284.97
2023-09-17T01:51:02.187Z,101287.16
2023-09-17T01:53:30.960Z,101291.25
2023-09-17T01:55:59.438Z,101280.00
2023-09-17T01:58:29.332Z,101286.63
2023-09-17T02:00:58.925Z,101273.53
2023-09-17T02:03:27.515Z,101277.91
2023-09-17T02:05:55.838Z,101270.31
2023-09-17T02:08:24.332Z,101270.81
2023-09-17T02:10:52.425Z,101269.91
2023-09-17T02:13:21.926Z,101265.00
2023-09-17T02:15:50.440Z,101268.69
2023-09-17T02:18:20.014Z,101269.50
2023-09-17T02:20:48.117Z,101258.31
2023-09-17T02:23:16.348Z,101257.09
2023-09-17T02:25:44.634Z,101263.22
2023-09-17T02:28:13.032Z,101259.66
2023-09-17T02:30:41.141Z,101256.38
2023-09-17T02:33:11.593Z,101261.81
2023-09-17T02:35:41.809Z,101261.09
2023-09-17T02:38:10.268Z,101260.00
2023-09-17T02:40:38.472Z,101258.41
2023-09-17T02:43:06.763Z,101249.56
2023-09-17T02:45:34.853Z,101250.63
2023-09-17T02:48:03.031Z,101242.19
2023-09-17T02:50:31.241Z,101242.47
2023-09-17T02:53:00.747Z,101239.16
2023-09-17T02:55:28.831Z,101235.53
2023-09-17T02:57:57.002Z,101234.19
2023-09-17T03:00:25.080Z,101234.75
2023-09-17T03:02:55.927Z,101231.38
2023-09-17T03:05:24.264Z,101230.91
2023-09-17T03:07:54.837Z,101222.16
2023-09-17T03:10:25.681Z,101208.56
2023-09-17T03:12:55.768Z,101213.31
2023-09-17T03:15:23.985Z,101213.31
2023-09-17T03:17:52.157Z,101212.75
2023-09-17T03:20:23.578Z,101213.88
2023-09-17T03:22:52.170Z,101218.78
2023-09-17T03:25:20.648Z,101229.22
2023-09-17T03:27:52.005Z,101222.66
2023-09-17T03:30:20.108Z,101217.16
2023-09-17T03:33:01.863Z,101212.50
2023-09-17T03:35:35.072Z,101211.38
2023-09-17T03:38:03.525Z,101217.72
2023-09-17T03:40:33.151Z,101212.50
2023-09-17T03:43:02.956Z,101204.25
2023-09-17T03:45:32.191Z,101207.28
2023-09-17T03:48:00.641Z,101204.00
2023-09-17T03:50:30.200Z,101206.75
2023-09-17T03:53:00.630Z,101201.25
2023-09-17T03:55:29.628Z,101208.94
2023-09-17T03:57:58.975Z,101195.47
2023-09-17T04:00:32.230Z,101204.06
2023-09-17T04:03:01.752Z,101203.19
2023-09-17T04:05:30.203Z,101201.00
2023-09-17T04:07:58.393Z,101194.16
2023-09-17T04:10:27.340Z,101197.66
2023-09-17T04:12:55.732Z,101196.28
2023-09-17T04:15:24.027Z,101182.28
2023-09-17T04:17:53.693Z,101192.44
2023-09-17T04:20:22.505Z,101191.31
2023-09-17T04:22:52.485Z,101192.72
2023-09-17T04:25:22.555Z,101186.31
2023-09-17T04:27:53.685Z,101181.91
2023-09-17T04:30:23.940Z,101178.94
2023-09-17T04:32:56.277Z,101178.97
2023-09-17T04:35:25.088Z,101172.94
2023-09-17T04:37:53.331Z,101164.41
2023-09-17T04:40:31.492Z,101162.50
2023-09-17T04:43:05.139Z,101147.91
2023-09-17T04:45:35.677Z,101145.72
2023-09-17T04:48:12.640Z,101140.75
2023-09-17T04:50:46.303Z,101139.41
2023-09-17T04:53:16.370Z,101126.97
2023-09-17T04:55:46.547Z,101128.38
2023-09-17T04:58:18.433Z,101124.72
2023-09-17T05:00:49.801Z,101118.19
2023-09-17T05:03:20.506Z,101112.09
2023-09-17T05:05:50.987Z,101123.16
2023-09-17T05:08:19.987Z,101126.16
2023-09-17T05:10:49.853Z,101124.50
2023-09-17T05:13:20.863Z,101134.66
2023-09-17T05:15:50.406Z,101148.16
2023-09-17T05:18:20.067Z,101154.19
2023-09-17T05:20:50.206Z,101151.06
2023-09-17T05:23:19.158Z,101161.28
2023-09-17T05:25:49.524Z,101154.03
2023-09-17T05:28:18.259Z,101148.03
2023-09-17T05:30:46.610Z,101148.53
2023-09-17T05:33:15.086Z,101134.53
2023-09-17T05:35:45.530Z,101137.28
2023-09-17T05:38:14.257Z,101143.06
2023-09-17T05:40:42.837Z,101140.03
2023-09-17T05:43:11.371Z,101146.09
2023-09-17T05:45:40.447Z,101149.88
2023-09-17T05:48:08.645Z,101151.56
2023-09-17T05:50:38.926Z,101153.78
2023-09-17T05:53:08.572Z,101157.63
2023-09-17T05:55:38.119Z,101146.56
2023-09-17T05:58:06.405Z,101132.25
2023-09-17T06:00:34.660Z,101134.16
2023-09-17T06:03:03.109Z,101137.16
2023-09-17T06:05:31.454Z,101139.44
2023-09-17T06:07:59.721Z,101135.28
2023-09-17T06:10:29.613Z,101128.47
2023-09-17T06:12:57.961Z,101142.22
2023-09-17T06:15:26.530Z,101142.41
2023-09-17T06:17:55.188Z,101144.34
2023-09-17T06:20:23.537Z,101145.94
2023-09-17T06:22:51.758Z,101149.75
2023-09-17T06:25:21.432Z,101153.41
2023-09-17T06:27:51.223Z,101161.31
2023-09-17T06:30:21.162Z,101153.41
2023-09-17T06:32:49.641Z,101148.72
2023-09-17T06:35:18.073Z,101144.28
2023-09-17T06:37:46.429Z,101139.88
2023-09-17T06:40:15.638Z,101144.34
2023-09-17T06:42:45.050Z,101146.22
2023-09-17T06:45:14.965Z,101145.75
2023-09-17T06:47:43.405Z,101142.22
2023-09-17T06:50:36.537Z,101141.09
2023-09-17T06:53:05.452Z,101137.03
2023-09-17T06:55:35.273Z,101134.53
2023-09-17T06:58:03.502Z,101129.03
2023-09-17T07:00:33.035Z,101125.19
2023-09-17T07:03:01.510Z,101135.09
2023-09-17T07:05:29.662Z,101137.06
2023-09-17T07:07:57.918Z,101146.19
2023-09-17T07:10:26.177Z,101152.16
2023-09-17T07:12:54.378Z,101156.56
2023-09-17T07:15:23.227Z,101136.56
2023-09-17T07:17:53.706Z,101142.09
2023-09-17T07:20:22.449Z,101131.41
2023-09-17T07:22:51.151Z,101132.50
2023-09-17T07:25:19.511Z,101130.06
2023-09-17T07:27:48.333Z,101128.50
2023-09-17T07:30:18.457Z,101122.97
2023-09-17T07:32:46.760Z,101115.59
2023-09-17T07:35:17.378Z,101117.22
2023-09-17T07:40:17.993Z,101098.59
2023-09-17T07:42:46.812Z,101096.13
2023-09-17T07:45:15.266Z,101114.56
2023-09-17T07:47:43.691Z,101117.59
2023-09-17T07:50:11.990Z,101107.69
2023-09-17T07:52:42.932Z,101111.28
2023-09-17T07:55:11.871Z,101112.66
2023-09-17T07:57:43.057Z,101107.44
2023-09-17T08:00:13.700Z,101107.75
2023-09-17T08:02:42.204Z,101104.69
2023-09-17T08:05:11.666Z,101112.09
2023-09-17T08:07:42.095Z,101103.59
2023-09-17T08:10:11.138Z,101091.25
2023-09-17T08:12:39.727Z,101091.28
2023-09-17T08:15:10.110Z,101086.88
2023-09-17T08:17:38.346Z,101083.28
2023-09-17T08:20:09.846Z,101069.53
2023-09-17T08:22:38.756Z,101074.47
2023-09-17T08:25:28.848Z,101068.16
2023-09-17T08:28:14.661Z,101069.03
2023-09-17T08:31:03.501Z,101064.06
2023-09-17T08:33:51.962Z,101065.44
2023-09-17T08:36:22.951Z,101075.06
2023-09-17T08:38:51.750Z,101064.91
2023-09-17T08:41:24.258Z,101072.59
2023-09-17T08:43:54.777Z,101069.81
2023-09-17T08:46:27.057Z,101062.91
2023-09-17T08:48:55.995Z,101068.19
2023-09-17T08:51:26.044Z,101072.00
2023-09-17T08:54:04.455Z,101074.47
2023-09-17T08:56:37.623Z,101077.78
2023-09-17T08:59:11.343Z,101055.19
2023-09-17T09:01:42.303Z,101052.44
2023-09-17T09:04:11.154Z,101057.88
2023-09-17T09:06:39.981Z,101060.63
2023-09-17T09:09:09.646Z,101051.72
2023-09-17T09:11:40.188Z,101037.31
2023-09-17T09:14:09.092Z,101039.19
2023-09-17T09:16:38.847Z,101025.16
2023-09-17T09:19:08.754Z,101036.78
2023-09-17T09:21:37.212Z,101025.69
2023-09-17T09:24:05.648Z,101007.53
2023-09-17T09:26:38.059Z,101005.88
2023-09-17T09:29:09.900Z,101008.38
2023-09-17T09:31:38.403Z,101018.88
2023-09-17T09:34:06.812Z,101025.75
2023-09-17T09:36:35.771Z,101038.38
2023-09-17T09:39:04.377Z,101044.00
2023-09-17T09:41:34.574Z,101043.66
2023-09-17T09:44:04.862Z,101060.63
2023-09-17T09:46:36.389Z,101043.25
2023-09-17T09:49:06.042Z,101047.66
2023-09-17T09:51:37.227Z,101039.69
2023-09-17T09:54:06.394Z,101046.28
2023-09-17T09:56:34.571Z,101049.59
2023-09-17T09:59:04.479Z,101057.94
2023-09-17T10:01:33.166Z,101054.31
2023-09-17T10:04:06.436Z,101062.84
2023-09-17T10:06:34.624Z,101051.28
2023-09-17T10:09:03.836Z,101067.78
2023-09-17T10:11:33.043Z,101067.53
2023-09-17T10:14:04.012Z,101065.81
2023-09-17T10:16:33.156Z,101065.53
2023-09-17T10:19:05.496Z,101065.53
2023-09-17T10:21:38.873Z,101068.56
2023-09-17T10:24:08.717Z,101067.72
2023-09-17T10:26:43.237Z,101063.84
2023-09-17T10:29:11.948Z,101055.63
2023-09-17T10:31:42.427Z,101038.44
2023-09-17T10:34:15.149Z,101035.63
2023-09-17T10:36:46.095Z,101037.25
2023-09-17T10:39:16.460Z,101028.97
2023-09-17T10:41:49.640Z,101021.53
2023-09-17T10:44:20.085Z,101032.66
2023-09-17T10:46:49.897Z,101036.00
2023-09-17T10:49:19.802Z,101026.00
2023-09-17T10:51:48.186Z,101025.06
2023-09-17T10:54:16.612Z,101032.97
2023-09-17T10:56:47.156Z,101039.47
2023-09-17T10:59:16.463Z,101042.47
2023-09-17T11:01:46.455Z,101041.91
2023-09-17T11:04:17.958Z,101044.22
2023-09-17T11:06:49.591Z,101032.09
2023-09-17T11:09:18.201Z,101038.84
2023-09-17T11:11:46.482Z,101043.41
2023-09-17T11:14:15.380Z,101051.13
2023-09-17T11:16:44.032Z,101039.94
2023-09-17T11:19:13.452Z,101038.94
2023-09-17T11:21:43.400Z,101036.81
2023-09-17T11:24:14.122Z,101022.97
2023-09-17T11:26:43.847Z,101017.25
2023-09-17T11:29:12.701Z,101016.38
2023-09-17T11:32:02.157Z,101014.75
2023-09-17T11:34:30.393Z,101018.66
2023-09-17T11:36:59.299Z,101005.44
2023-09-17T11:39:29.044Z,101009.03
2023-09-17T11:42:04.730Z,101003.84
2023-09-17T11:44:35.262Z,101002.16
2023-09-17T11:47:04.382Z,100997.75
2023-09-17T11:49:33.866Z,100991.13
2023-09-17T11:52:02.212Z,100980.63
2023-09-17T11:54:35.452Z,100983.97
2023-09-17T11:57:04.183Z,100983.16
2023-09-17T11:59:39.512Z,100972.97
2023-09-17T12:02:08.197Z,100990.91
2023-09-17T12:04:38.086Z,100988.47
2023-09-17T12:07:10.625Z,101003.06
2023-09-17T12:09:50.085Z,100998.13
2023-09-17T12:12:20.446Z,100998.13
2023-09-17T12:14:49.028Z,101000.34
2023-09-17T12:17:17.956Z,101000.91
2023-09-17T12:19:50.358Z,100985.81
2023-09-17T12:22:18.956Z,100973.66
2023-09-17T12:25:04.437Z,100966.19
2023-09-17T12:27:36.793Z,100951.88
2023-09-17T12:30:09.728Z,100936.72
2023-09-17T12:32:38.457Z,100924.63
2023-09-17T12:35:08.601Z,100915.56
2023-09-17T12:37:37.371Z,100916.09
2023-09-17T12:40:09.797Z,100922.69
2023-09-17T12:42:39.088Z,100908.94
2023-09-17T12:45:09.793Z,100895.94
2023-09-17T12:47:38.497Z,100896.53
2023-09-17T12:50:07.699Z,100891.06
2023-09-17T12:52:36.198Z,100894.31
2023-09-17T12:55:04.906Z,100897.09
2023-09-17T12:57:34.918Z,100903.16
2023-09-17T13:00:04.615Z,100904.22
2023-09-17T13:02:34.824Z,100905.38
2023-09-17T13:05:04.078Z,100900.97
2023-09-17T13:07:33.249Z,100894.91
2023-09-17T13:10:02.152Z,100879.50
2023-09-17T13:12:30.624Z,100877.84
2023-09-17T13:15:01.888Z,100871.22
2023-09-17T13:17:32.279Z,100875.59
2023-09-17T13:20:00.885Z,100897.63
2023-09-17T13:23:44.049Z,100897.63
2023-09-17T13:26:13.148Z,100911.72
2023-09-17T13:28:42.189Z,100899.03
2023-09-17T13:31:12.381Z,100900.69
2023-09-17T13:33:40.810Z,100899.56
2023-09-17T13:36:11.920Z,100886.09
2023-09-17T13:38:42.824Z,100892.69
2023-09-17T13:41:11.178Z,100901.22
2023-09-17T13:43:39.803Z,100900.94
2023-09-17T13:46:08.456Z,100892.69
2023-09-17T13:48:38.310Z,100893.28
2023-09-17T13:51:06.659Z,100880.31
2023-09-17T13:53:35.085Z,100893.28
2023-09-17T13:56:03.690Z,100881.66
2023-09-17T13:58:32.241Z,100868.16
2023-09-17T14:01:00.780Z,100877.81
2023-09-17T14:03:29.261Z,100865.69
2023-09-17T14:05:59.217Z,100868.47
2023-09-17T14:08:27.373Z,100872.31
2023-09-17T14:10:55.872Z,100869.84
2023-09-17T14:13:24.042Z,100867.34
2023-09-17T14:15:52.191Z,100864.88
2023-09-17T14:18:20.754Z,100868.72
2023-09-17T14:20:49.172Z,100857.44
2023-09-17T14:23:18.797Z,100854.69
2023-09-17T14:25:47.089Z,100851.38
2023-09-17T14:28:15.375Z,100844.78
2023-09-17T14:30:43.773Z,100830.75
2023-09-17T14:33:12.693Z,100842.03
2023-09-17T14:35:41.041Z,100832.66
2023-09-17T14:38:09.327Z,100826.56
2023-09-17T14:40:39.125Z,100832.91
2023-09-17T14:43:07.813Z,100818.03
2023-09-17T14:45:37.723Z,100818.88
2023-09-17T14:48:06.295Z,100825.47
2023-09-17T14:50:34.798Z,100817.50
2023-09-17T14:53:03.030Z,100807.78
2023-09-17T14:55:31.396Z,100793.91
2023-09-17T14:58:01.040Z,100786.34
2023-09-17T15:00:29.248Z,100792.88
2023-09-17T15:02:57.581Z,100789.91
2023-09-17T15:05:26.096Z,100790.94
2023-09-17T15:07:54.481Z,100784.13
2023-09-17T15:10:22.705Z,100784.88
2023-09-17T15:12:51.354Z,100774.44
2023-09-17T15:15:21.201Z,100774.38
2023-09-17T15:17:49.930Z,100760.50
2023-09-17T15:20:21.223Z,100752.50
2023-09-17T15:23:15.838Z,100737.59
2023-09-17T15:25:44.875Z,100734.09
2023-09-17T15:28:13.334Z,100730.16
2023-09-17T15:30:42.956Z,100722.47
2023-09-17T15:33:11.640Z,100711.75
2023-09-17T15:35:40.136Z,100712.28
2023-09-17T15:38:09.946Z,100704.06
2023-09-17T15:40:38.770Z,100702.78
2023-09-17T15:43:07.319Z,100702.25
2023-09-17T15:45:35.672Z,100694.78
2023-09-17T15:48:06.075Z,100690.06
2023-09-17T15:50:34.724Z,100688.47
2023-09-17T15:53:03.183Z,100689.50
2023-09-17T15:55:31.580Z,100694.44
2023-09-17T15:58:00.345Z,100688.69
2023-09-17T16:00:28.750Z,100688.78
2023-09-17T16:02:57.324Z,100685.72
2023-09-17T16:05:27.503Z,100683.69
2023-09-17T16:07:56.034Z,100692.03
2023-09-17T16:10:25.727Z,100696.25
2023-09-17T16:12:55.749Z,100695.06
2023-09-17T16:15:26.355Z,100692.72
2023-09-17T16:17:54.768Z,100698.63
2023-09-17T16:20:23.911Z,100686.31
2023-09-17T16:23:19.377Z,100686.84
2023-09-17T16:25:47.560Z,100679.09
2023-09-17T16:28:15.804Z,100684.28
2023-09-17T16:30:44.498Z,100682.41
2023-09-17T16:33:12.935Z,100683.00
2023-09-17T16:35:41.460Z,100682.97
2023-09-17T16:38:10.191Z,100684.28
2023-09-17T16:40:40.728Z,100687.59
2023-09-17T16:43:14.356Z,100684.03
2023-09-17T16:45:44.979Z,100681.00
2023-09-17T16:48:13.998Z,100669.06
2023-09-17T16:50:42.362Z,100675.16
2023-09-17T16:53:11.092Z,100661.53
2023-09-17T16:55:47.196Z,100663.44
2023-09-17T16:58:18.953Z,100657.41
2023-09-17T17:00:51.817Z,100658.78
2023-09-17T17:03:20.583Z,100664.06
2023-09-17T17:05:48.982Z,100659.13
2023-09-17T17:08:17.430Z,100652.72
2023-09-17T17:10:47.165Z,100652.75
2023-09-17T17:13:15.930Z,100643.97
2023-09-17T17:15:44.433Z,100646.47
2023-09-17T17:18:12.779Z,100659.97
2023-09-17T17:20:41.241Z,100662.41
2023-09-17T17:23:09.858Z,100669.03
2023-09-17T17:25:38.418Z,100665.47
2023-09-17T17:28:08.390Z,100660.53
2023-09-17T17:30:36.834Z,100659.16
2023-09-17T17:33:05.980Z,100649.50
2023-09-17T17:35:34.433Z,100644.25
2023-09-17T17:38:02.739Z,100642.88
2023-09-17T17:40:31.596Z,100638.00
2023-09-17T17:47:52.861Z,100653.47
2023-09-17T17:50:21.209Z,100644.97
2023-09-17T17:52:49.648Z,100642.25
2023-09-17T17:55:18.220Z,100643.63
2023-09-17T17:57:47.155Z,100636.25
2023-09-17T18:00:15.886Z,100631.63
2023-09-17T18:02:47.773Z,100636.53
2023-09-17T18:05:17.901Z,100643.66
2023-09-17T18:07:46.595Z,100638.47
2023-09-17T18:10:15.368Z,100626.94
2023-09-17T18:12:44.457Z,100624.53
2023-09-17T18:15:18.966Z,100614.06
2023-09-17T18:17:48.368Z,100597.03
2023-09-17T18:20:18.497Z,100590.19
2023-09-17T18:22:46.827Z,100589.94
2023-09-17T18:25:15.616Z,100572.59
2023-09-17T18:27:43.872Z,100551.94
2023-09-17T18:30:12.978Z,100535.44
2023-09-17T18:32:41.403Z,100513.91
2023-09-17T18:35:10.703Z,100503.81
2023-09-17T18:37:40.351Z,100504.69
2023-09-17T18:40:09.268Z,100506.63
2023-09-17T18:42:37.594Z,100509.38
2023-09-17T18:45:09.725Z,100512.94
2023-09-17T18:47:39.276Z,100510.22
2023-09-17T18:50:08.952Z,100514.06
2023-09-17T18:52:37.802Z,100514.56
2023-09-17T18:55:08.659Z,100511.59
2023-09-17T18:57:38.187Z,100500.31
2023-09-17T19:00:09.337Z,100496.47
2023-09-17T19:02:41.012Z,100509.13
2023-09-17T19:05:10.744Z,100528.13
2023-09-17T19:07:40.574Z,100538.31
2023-09-17T19:10:13.005Z,100536.91
2023-09-17T19:12:41.313Z,100534.16
2023-09-17T19:15:10.976Z,100523.41
2023-09-17T19:17:39.451Z,100520.97
2023-09-17T19:20:09.246Z,100525.13
2023-09-17T19:22:37.613Z,100539.97
2023-09-17T19:25:06.367Z,100546.31
2023-09-17T19:27:36.525Z,100544.59
2023-09-17T19:30:05.783Z,100545.72
2023-09-17T19:32:34.341Z,100532.81
2023-09-17T19:35:02.896Z,100511.66
2023-09-17T19:37:31.680Z,100488.78
2023-09-17T19:39:59.808Z,100475.03
2023-09-17T19:42:29.232Z,100464.34
2023-09-17T19:44:58.969Z,100455.22
2023-09-17T19:47:27.696Z,100451.66
2023-09-17T19:49:56.038Z,100455.22
2023-09-17T19:52:25.002Z,100462.38
2023-09-17T19:54:53.276Z,100462.38
2023-09-17T19:57:22.776Z,100469.28
2023-09-17T19:59:51.149Z,100471.72
2023-09-17T20:02:21.546Z,100467.34
2023-09-17T20:04:50.110Z,100470.09
2023-09-17T20:07:20.048Z,100466.22
2023-09-17T20:09:48.150Z,100468.16
2023-09-17T20:12:16.370Z,100470.91
2023-09-17T20:14:44.680Z,100470.09
2023-09-17T20:17:13.077Z,100465.72
2023-09-17T20:19:42.781Z,100469.81
2023-09-17T20:22:10.875Z,100473.38
2023-09-17T20:24:40.379Z,100481.09
2023-09-17T20:27:08.652Z,100493.75
2023-09-17T20:29:36.877Z,100505.59
2023-09-17T20:32:05.334Z,100497.84
2023-09-17T20:34:33.560Z,100500.91
2023-09-17T20:37:03.870Z,100506.09
2023-09-17T20:39:32.124Z,100508.03
2023-09-17T20:42:00.325Z,100520.16
2023-09-17T20:44:28.691Z,100519.88
2023-09-17T20:46:57.353Z,100511.88
2023-09-17T20:49:25.819Z,100516.81
2023-09-17T20:51:53.955Z,100503.06
2023-09-17T20:54:23.585Z,100494.50
2023-09-17T20:56:51.750Z,100495.03
2023-09-17T20:59:19.917Z,100486.50
2023-09-17T21:01:48.207Z,100478.78
2023-09-17T21:04:16.386Z,100469.69
2023-09-17T21:06:44.482Z,100473.81
2023-09-17T21:09:26.810Z,100467.22
2023-09-17T21:11:55.105Z,100462.22
2023-09-17T21:14:23.539Z,100450.13
2023-09-17T21:16:51.716Z,100452.28
2023-09-17T21:19:19.711Z,100441.28
2023-09-17T21:21:47.800Z,100439.06
2023-09-17T21:24:15.982Z,100436.00
2023-09-17T21:26:45.588Z,100429.94
2023-09-17T21:29:13.873Z,100417.00
2023-09-17T21:31:42.105Z,100403.25
2023-09-17T21:34:10.331Z,100408.97
2023-09-17T21:36:38.470Z,100406.50
2023-09-17T21:39:07.571Z,100400.16
2023-09-17T21:41:36.547Z,100402.66
2023-09-17T21:44:06.782Z,100409.81
2023-09-17T21:46:35.460Z,100415.31
2023-09-17T21:49:03.643Z,100412.81
2023-09-17T21:51:31.699Z,100412.56
2023-09-17T21:54:01.491Z,100399.66
2023-09-17T21:56:30.303Z,100377.34
2023-09-17T21:58:58.497Z,100358.63
2023-09-17T22:01:28.263Z,100352.25
2023-09-17T22:03:56.629Z,100347.59
2023-09-17T22:06:24.758Z,100348.41
2023-09-17T22:08:53.058Z,100352.81
2023-09-17T22:11:23.222Z,100344.25
2023-09-17T22:13:51.907Z,100347.28
2023-09-17T22:16:20.502Z,100339.03
2023-09-17T22:18:50.679Z,100331.91
2023-09-17T22:21:19.090Z,100328.31
2023-09-17T22:23:48.824Z,100307.94
2023-09-17T22:26:18.482Z,100305.19
2023-09-17T22:28:52.032Z,100307.66
2023-09-17T22:31:25.753Z,100301.31
2023-09-17T22:38:49.515Z,100263.88
2023-09-17T22:41:18.750Z,100253.16
2023-09-17T22:43:49.086Z,100246.03
2023-09-17T22:56:01.191Z,100254.63
2023-09-17T22:59:43.937Z,100221.06
2023-09-17T23:02:12.281Z,100232.91
2023-09-17T23:04:40.464Z,100252.97
2023-09-17T23:07:08.619Z,100258.78
2023-09-17T23:09:36.799Z,100244.19
2023-09-17T23:12:06.811Z,100241.97
2023-09-17T23:14:35.522Z,100238.41
2023-09-17T23:17:03.830Z,100254.09
2023-09-17T23:19:32.359Z,100256.31
2023-09-17T23:22:00.748Z,100256.03
2023-09-17T23:24:28.839Z,100268.69
2023-09-17T23:26:56.888Z,100261.25
2023-09-17T23:29:26.675Z,100249.69
2023-09-17T23:31:54.884Z,100244.50
2023-09-17T23:34:23.572Z,100278.38
2023-09-17T23:36:51.691Z,100293.31
2023-09-17T23:39:19.795Z,100288.84
2023-09-17T23:41:47.880Z,100284.19
2023-09-17T23:44:15.982Z,100276.09
2023-09-17T23:46:45.435Z,100294.47
2023-09-17T23:49:13.458Z,100301.91
2023-09-17T23:51:41.778Z,100306.88
2023-09-17T23:54:09.886Z,100321.69
2023-09-17T23:56:38.217Z,100320.91
2023-09-17T23:59:06.569Z,100319.53
